sensor_id;sensor_type;location;lat;lon;timestamp;P1;durP1;ratioP1;P2;durP2;ratioP2
69754;SDS011;57023;52.218;5.158;2022-08-19T00:02:08;12.05;;;7.93;;
69754;SDS011;57023;52.218;5.158;2022-08-19T00:04:34;10.80;;;7.80;;
69754;SDS011;57023;52.218;5.158;2022-08-19T00:07:01;10.75;;;7.72;;
69754;SDS011;57023;52.218;5.158;2022-08-19T00:09:27;11.07;;;8.98;;
69754;SDS011;57023;52.218;5.158;2022-08-19T00:11:53;10.30;;;8.02;;
69754;SDS011;57023;52.218;5.158;2022-08-19T00:14:20;11.00;;;8.30;;
69754;SDS011;57023;52.218;5.158;2022-08-19T00:16:47;10.05;;;8.10;;
69754;SDS011;57023;52.218;5.158;2022-08-19T00:19:13;11.10;;;8.50;;
69754;SDS011;57023;52.218;5.158;2022-08-19T00:21:39;10.52;;;8.00;;
69754;SDS011;57023;52.218;5.158;2022-08-19T00:24:05;12.20;;;8.52;;
69754;SDS011;57023;52.218;5.158;2022-08-19T00:26:32;11.95;;;8.02;;
69754;SDS011;57023;52.218;5.158;2022-08-19T00:28:58;10.93;;;8.38;;
69754;SDS011;57023;52.218;5.158;2022-08-19T00:31:24;9.57;;;7.60;;
69754;SDS011;57023;52.218;5.158;2022-08-19T00:33:50;11.02;;;7.88;;
69754;SDS011;57023;52.218;5.158;2022-08-19T00:36:15;9.60;;;8.30;;
69754;SDS011;57023;52.218;5.158;2022-08-19T00:38:41;9.73;;;7.47;;
69754;SDS011;57023;52.218;5.158;2022-08-19T00:41:08;11.33;;;7.67;;
69754;SDS011;57023;52.218;5.158;2022-08-19T00:43:35;9.57;;;7.30;;
69754;SDS011;57023;52.218;5.158;2022-08-19T00:46:00;8.88;;;7.32;;
69754;SDS011;57023;52.218;5.158;2022-08-19T00:48:29;10.30;;;7.90;;
69754;SDS011;57023;52.218;5.158;2022-08-19T00:50:55;12.40;;;8.27;;
69754;SDS011;57023;52.218;5.158;2022-08-19T00:53:22;12.50;;;8.15;;
69754;SDS011;57023;52.218;5.158;2022-08-19T00:55:51;10.10;;;7.82;;
69754;SDS011;57023;52.218;5.158;2022-08-19T00:58:18;11.80;;;8.07;;
69754;SDS011;57023;52.218;5.158;2022-08-19T01:00:45;12.65;;;8.70;;
69754;SDS011;57023;52.218;5.158;2022-08-19T01:03:13;12.68;;;8.32;;
69754;SDS011;57023;52.218;5.158;2022-08-19T01:05:41;11.82;;;8.63;;
69754;SDS011;57023;52.218;5.158;2022-08-19T01:08:07;14.00;;;8.80;;
69754;SDS011;57023;52.218;5.158;2022-08-19T01:10:35;11.20;;;8.68;;
69754;SDS011;57023;52.218;5.158;2022-08-19T01:13:03;11.57;;;9.13;;
69754;SDS011;57023;52.218;5.158;2022-08-19T01:15:30;13.53;;;9.23;;
69754;SDS011;57023;52.218;5.158;2022-08-19T01:17:58;13.77;;;9.70;;
69754;SDS011;57023;52.218;5.158;2022-08-19T01:20:25;13.38;;;9.70;;
69754;SDS011;57023;52.218;5.158;2022-08-19T01:22:55;11.88;;;9.48;;
69754;SDS011;57023;52.218;5.158;2022-08-19T01:25:24;13.88;;;10.20;;
69754;SDS011;57023;52.218;5.158;2022-08-19T01:28:00;14.52;;;9.65;;
69754;SDS011;57023;52.218;5.158;2022-08-19T01:30:27;12.68;;;9.40;;
69754;SDS011;57023;52.218;5.158;2022-08-19T01:32:56;14.00;;;9.27;;
69754;SDS011;57023;52.218;5.158;2022-08-19T01:35:22;12.60;;;9.32;;
69754;SDS011;57023;52.218;5.158;2022-08-19T01:40:19;12.77;;;9.60;;
69754;SDS011;57023;52.218;5.158;2022-08-19T01:42:46;12.90;;;9.73;;
69754;SDS011;57023;52.218;5.158;2022-08-19T01:45:13;13.60;;;10.30;;
69754;SDS011;57023;52.218;5.158;2022-08-19T01:47:39;13.15;;;9.65;;
69754;SDS011;57023;52.218;5.158;2022-08-19T01:50:07;12.75;;;9.80;;
69754;SDS011;57023;52.218;5.158;2022-08-19T01:52:37;11.43;;;9.48;;
69754;SDS011;57023;52.218;5.158;2022-08-19T01:55:03;13.77;;;9.30;;
69754;SDS011;57023;52.218;5.158;2022-08-19T01:57:30;12.45;;;9.50;;
69754;SDS011;57023;52.218;5.158;2022-08-19T01:59:56;14.27;;;9.45;;
69754;SDS011;57023;52.218;5.158;2022-08-19T02:02:21;13.52;;;9.82;;
69754;SDS011;57023;52.218;5.158;2022-08-19T02:04:47;12.48;;;9.35;;
69754;SDS011;57023;52.218;5.158;2022-08-19T02:07:12;14.02;;;10.15;;
69754;SDS011;57023;52.218;5.158;2022-08-19T02:09:38;15.18;;;10.07;;
69754;SDS011;57023;52.218;5.158;2022-08-19T02:12:04;13.02;;;9.60;;
69754;SDS011;57023;52.218;5.158;2022-08-19T02:14:29;14.75;;;9.88;;
69754;SDS011;57023;52.218;5.158;2022-08-19T02:16:55;12.63;;;9.55;;
69754;SDS011;57023;52.218;5.158;2022-08-19T02:19:20;15.80;;;10.32;;
69754;SDS011;57023;52.218;5.158;2022-08-19T02:21:46;13.75;;;10.32;;
69754;SDS011;57023;52.218;5.158;2022-08-19T02:24:11;14.20;;;10.57;;
69754;SDS011;57023;52.218;5.158;2022-08-19T02:26:39;14.02;;;10.15;;
69754;SDS011;57023;52.218;5.158;2022-08-19T02:29:05;13.63;;;9.95;;
69754;SDS011;57023;52.218;5.158;2022-08-19T02:31:30;14.13;;;10.63;;
69754;SDS011;57023;52.218;5.158;2022-08-19T02:33:55;13.80;;;10.18;;
69754;SDS011;57023;52.218;5.158;2022-08-19T02:36:21;13.20;;;9.85;;
69754;SDS011;57023;52.218;5.158;2022-08-19T02:38:47;13.80;;;9.82;;
69754;SDS011;57023;52.218;5.158;2022-08-19T02:41:20;15.55;;;10.50;;
69754;SDS011;57023;52.218;5.158;2022-08-19T02:43:47;13.75;;;10.13;;
69754;SDS011;57023;52.218;5.158;2022-08-19T02:48:42;14.85;;;10.93;;
69754;SDS011;57023;52.218;5.158;2022-08-19T02:51:08;15.70;;;11.40;;
69754;SDS011;57023;52.218;5.158;2022-08-19T02:53:33;17.40;;;12.18;;
69754;SDS011;57023;52.218;5.158;2022-08-19T02:55:59;17.10;;;11.80;;
69754;SDS011;57023;52.218;5.158;2022-08-19T02:58:24;19.73;;;13.18;;
69754;SDS011;57023;52.218;5.158;2022-08-19T03:00:52;18.17;;;11.60;;
69754;SDS011;57023;52.218;5.158;2022-08-19T03:03:19;17.85;;;12.05;;
69754;SDS011;57023;52.218;5.158;2022-08-19T03:05:45;18.27;;;12.57;;
69754;SDS011;57023;52.218;5.158;2022-08-19T03:08:11;19.77;;;13.63;;
69754;SDS011;57023;52.218;5.158;2022-08-19T03:10:44;19.00;;;12.95;;
69754;SDS011;57023;52.218;5.158;2022-08-19T03:13:16;20.02;;;14.05;;
69754;SDS011;57023;52.218;5.158;2022-08-19T03:15:43;20.20;;;13.13;;
69754;SDS011;57023;52.218;5.158;2022-08-19T03:20:39;21.57;;;13.60;;
69754;SDS011;57023;52.218;5.158;2022-08-19T03:23:06;20.48;;;12.88;;
69754;SDS011;57023;52.218;5.158;2022-08-19T03:25:35;20.23;;;13.55;;
69754;SDS011;57023;52.218;5.158;2022-08-19T03:28:02;20.90;;;13.82;;
69754;SDS011;57023;52.218;5.158;2022-08-19T03:30:27;20.65;;;13.65;;
69754;SDS011;57023;52.218;5.158;2022-08-19T03:32:53;18.63;;;13.30;;
69754;SDS011;57023;52.218;5.158;2022-08-19T03:35:18;24.17;;;15.52;;
69754;SDS011;57023;52.218;5.158;2022-08-19T03:37:45;26.50;;;15.85;;
69754;SDS011;57023;52.218;5.158;2022-08-19T03:40:10;25.05;;;16.08;;
69754;SDS011;57023;52.218;5.158;2022-08-19T03:42:36;26.50;;;16.70;;
69754;SDS011;57023;52.218;5.158;2022-08-19T03:45:01;27.45;;;17.17;;
69754;SDS011;57023;52.218;5.158;2022-08-19T03:47:26;27.20;;;16.52;;
69754;SDS011;57023;52.218;5.158;2022-08-19T03:49:52;27.35;;;17.10;;
69754;SDS011;57023;52.218;5.158;2022-08-19T03:52:17;25.58;;;16.48;;
69754;SDS011;57023;52.218;5.158;2022-08-19T03:54:42;24.52;;;15.75;;
69754;SDS011;57023;52.218;5.158;2022-08-19T03:57:08;23.70;;;15.20;;
69754;SDS011;57023;52.218;5.158;2022-08-19T03:59:35;25.23;;;16.55;;
69754;SDS011;57023;52.218;5.158;2022-08-19T04:02:02;26.90;;;16.42;;
69754;SDS011;57023;52.218;5.158;2022-08-19T04:04:32;25.23;;;15.63;;
69754;SDS011;57023;52.218;5.158;2022-08-19T04:06:57;27.88;;;17.35;;
69754;SDS011;57023;52.218;5.158;2022-08-19T04:09:23;29.67;;;17.63;;
69754;SDS011;57023;52.218;5.158;2022-08-19T04:11:50;29.65;;;17.70;;
69754;SDS011;57023;52.218;5.158;2022-08-19T04:14:22;27.40;;;17.55;;
69754;SDS011;57023;52.218;5.158;2022-08-19T04:16:50;29.45;;;17.58;;
69754;SDS011;57023;52.218;5.158;2022-08-19T04:19:16;26.17;;;16.92;;
69754;SDS011;57023;52.218;5.158;2022-08-19T04:21:45;31.35;;;18.98;;
69754;SDS011;57023;52.218;5.158;2022-08-19T04:24:12;27.05;;;16.92;;
69754;SDS011;57023;52.218;5.158;2022-08-19T04:26:42;26.45;;;17.17;;
69754;SDS011;57023;52.218;5.158;2022-08-19T04:29:09;27.60;;;17.48;;
69754;SDS011;57023;52.218;5.158;2022-08-19T04:31:36;28.40;;;17.08;;
69754;SDS011;57023;52.218;5.158;2022-08-19T04:34:03;29.30;;;16.75;;
69754;SDS011;57023;52.218;5.158;2022-08-19T04:36:31;25.65;;;16.00;;
69754;SDS011;57023;52.218;5.158;2022-08-19T04:38:59;27.75;;;16.75;;
69754;SDS011;57023;52.218;5.158;2022-08-19T04:41:29;27.92;;;16.75;;
69754;SDS011;57023;52.218;5.158;2022-08-19T04:44:13;28.15;;;16.90;;
69754;SDS011;57023;52.218;5.158;2022-08-19T04:46:43;30.77;;;18.70;;
69754;SDS011;57023;52.218;5.158;2022-08-19T04:49:08;32.83;;;18.42;;
69754;SDS011;57023;52.218;5.158;2022-08-19T04:51:35;29.73;;;18.42;;
69754;SDS011;57023;52.218;5.158;2022-08-19T04:54:01;30.77;;;18.30;;
69754;SDS011;57023;52.218;5.158;2022-08-19T04:56:27;30.90;;;18.92;;
69754;SDS011;57023;52.218;5.158;2022-08-19T04:58:54;32.40;;;19.15;;
69754;SDS011;57023;52.218;5.158;2022-08-19T05:01:21;33.70;;;19.48;;
69754;SDS011;57023;52.218;5.158;2022-08-19T05:03:48;33.38;;;19.90;;
69754;SDS011;57023;52.218;5.158;2022-08-19T05:06:15;35.63;;;19.58;;
69754;SDS011;57023;52.218;5.158;2022-08-19T05:08:41;32.83;;;18.65;;
69754;SDS011;57023;52.218;5.158;2022-08-19T05:11:13;32.42;;;19.52;;
69754;SDS011;57023;52.218;5.158;2022-08-19T05:13:41;37.65;;;21.98;;
69754;SDS011;57023;52.218;5.158;2022-08-19T05:18:33;35.20;;;21.07;;
69754;SDS011;57023;52.218;5.158;2022-08-19T05:21:18;31.58;;;19.45;;
69754;SDS011;57023;52.218;5.158;2022-08-19T05:24:04;41.33;;;21.13;;
69754;SDS011;57023;52.218;5.158;2022-08-19T05:26:33;38.17;;;21.63;;
69754;SDS011;57023;52.218;5.158;2022-08-19T05:29:02;38.15;;;22.13;;
69754;SDS011;57023;52.218;5.158;2022-08-19T05:31:28;42.50;;;23.30;;
69754;SDS011;57023;52.218;5.158;2022-08-19T05:33:53;40.47;;;22.92;;
69754;SDS011;57023;52.218;5.158;2022-08-19T05:36:18;39.50;;;22.73;;
69754;SDS011;57023;52.218;5.158;2022-08-19T05:38:45;43.17;;;24.05;;
69754;SDS011;57023;52.218;5.158;2022-08-19T05:41:11;47.22;;;24.20;;
69754;SDS011;57023;52.218;5.158;2022-08-19T05:46:03;52.67;;;25.43;;
69754;SDS011;57023;52.218;5.158;2022-08-19T05:48:30;51.92;;;27.02;;
69754;SDS011;57023;52.218;5.158;2022-08-19T05:50:56;54.58;;;27.45;;
69754;SDS011;57023;52.218;5.158;2022-08-19T05:53:23;61.90;;;27.52;;
69754;SDS011;57023;52.218;5.158;2022-08-19T05:55:49;55.88;;;28.65;;
69754;SDS011;57023;52.218;5.158;2022-08-19T05:58:14;61.92;;;29.75;;
69754;SDS011;57023;52.218;5.158;2022-08-19T06:00:39;63.15;;;30.83;;
69754;SDS011;57023;52.218;5.158;2022-08-19T06:03:08;65.90;;;30.75;;
69754;SDS011;57023;52.218;5.158;2022-08-19T06:05:33;66.50;;;30.38;;
69754;SDS011;57023;52.218;5.158;2022-08-19T06:07:58;59.28;;;30.48;;
69754;SDS011;57023;52.218;5.158;2022-08-19T06:10:24;65.05;;;31.88;;
69754;SDS011;57023;52.218;5.158;2022-08-19T06:12:51;63.67;;;28.65;;
69754;SDS011;57023;52.218;5.158;2022-08-19T06:15:16;71.22;;;30.45;;
69754;SDS011;57023;52.218;5.158;2022-08-19T06:17:41;67.25;;;32.38;;
69754;SDS011;57023;52.218;5.158;2022-08-19T06:20:10;69.80;;;32.72;;
69754;SDS011;57023;52.218;5.158;2022-08-19T06:22:47;69.00;;;32.60;;
69754;SDS011;57023;52.218;5.158;2022-08-19T06:25:15;75.78;;;34.22;;
69754;SDS011;57023;52.218;5.158;2022-08-19T06:27:41;83.00;;;33.95;;
69754;SDS011;57023;52.218;5.158;2022-08-19T06:30:06;81.53;;;34.05;;
69754;SDS011;57023;52.218;5.158;2022-08-19T06:32:32;82.90;;;33.35;;
69754;SDS011;57023;52.218;5.158;2022-08-19T06:34:57;85.40;;;35.50;;
69754;SDS011;57023;52.218;5.158;2022-08-19T06:37:23;82.55;;;34.08;;
69754;SDS011;57023;52.218;5.158;2022-08-19T06:39:48;85.03;;;35.38;;
69754;SDS011;57023;52.218;5.158;2022-08-19T06:42:14;91.43;;;37.55;;
69754;SDS011;57023;52.218;5.158;2022-08-19T06:44:42;84.60;;;35.03;;
69754;SDS011;57023;52.218;5.158;2022-08-19T06:47:10;82.57;;;35.13;;
69754;SDS011;57023;52.218;5.158;2022-08-19T06:49:37;81.13;;;35.22;;
69754;SDS011;57023;52.218;5.158;2022-08-19T06:52:02;85.25;;;35.35;;
69754;SDS011;57023;52.218;5.158;2022-08-19T06:54:29;85.23;;;36.23;;
69754;SDS011;57023;52.218;5.158;2022-08-19T06:56:55;87.65;;;34.63;;
69754;SDS011;57023;52.218;5.158;2022-08-19T06:59:22;88.50;;;35.90;;
69754;SDS011;57023;52.218;5.158;2022-08-19T07:01:52;96.05;;;35.53;;
69754;SDS011;57023;52.218;5.158;2022-08-19T07:04:20;88.82;;;33.92;;
69754;SDS011;57023;52.218;5.158;2022-08-19T07:06:50;99.38;;;38.38;;
69754;SDS011;57023;52.218;5.158;2022-08-19T07:09:21;103.38;;;38.90;;
69754;SDS011;57023;52.218;5.158;2022-08-19T07:11:51;91.80;;;37.97;;
69754;SDS011;57023;52.218;5.158;2022-08-19T07:16:44;84.40;;;31.15;;
69754;SDS011;57023;52.218;5.158;2022-08-19T07:19:10;97.20;;;38.90;;
69754;SDS011;57023;52.218;5.158;2022-08-19T07:21:36;93.80;;;38.60;;
69754;SDS011;57023;52.218;5.158;2022-08-19T07:24:01;95.55;;;39.60;;
69754;SDS011;57023;52.218;5.158;2022-08-19T07:26:28;91.90;;;38.53;;
69754;SDS011;57023;52.218;5.158;2022-08-19T07:28:55;101.15;;;39.63;;
69754;SDS011;57023;52.218;5.158;2022-08-19T07:31:22;92.97;;;39.87;;
69754;SDS011;57023;52.218;5.158;2022-08-19T07:33:50;99.97;;;42.10;;
69754;SDS011;57023;52.218;5.158;2022-08-19T07:36:18;91.40;;;40.53;;
69754;SDS011;57023;52.218;5.158;2022-08-19T07:38:46;96.88;;;40.90;;
69754;SDS011;57023;52.218;5.158;2022-08-19T07:41:14;99.40;;;43.10;;
69754;SDS011;57023;52.218;5.158;2022-08-19T07:43:41;92.43;;;41.47;;
69754;SDS011;57023;52.218;5.158;2022-08-19T07:46:08;95.07;;;38.42;;
69754;SDS011;57023;52.218;5.158;2022-08-19T07:48:34;100.22;;;41.05;;
69754;SDS011;57023;52.218;5.158;2022-08-19T07:51:00;99.40;;;42.70;;
69754;SDS011;57023;52.218;5.158;2022-08-19T07:53:29;91.63;;;40.38;;
69754;SDS011;57023;52.218;5.158;2022-08-19T07:55:55;93.28;;;41.70;;
69754;SDS011;57023;52.218;5.158;2022-08-19T07:58:23;88.50;;;41.67;;
69754;SDS011;57023;52.218;5.158;2022-08-19T08:00:49;94.55;;;43.40;;
69754;SDS011;57023;52.218;5.158;2022-08-19T08:03:16;84.72;;;38.88;;
69754;SDS011;57023;52.218;5.158;2022-08-19T08:05:43;90.40;;;42.08;;
69754;SDS011;57023;52.218;5.158;2022-08-19T08:08:27;84.20;;;38.45;;
69754;SDS011;57023;52.218;5.158;2022-08-19T08:11:04;88.38;;;40.90;;
69754;SDS011;57023;52.218;5.158;2022-08-19T08:13:30;89.72;;;39.90;;
69754;SDS011;57023;52.218;5.158;2022-08-19T08:15:56;89.30;;;39.63;;
69754;SDS011;57023;52.218;5.158;2022-08-19T08:18:22;92.35;;;43.42;;
69754;SDS011;57023;52.218;5.158;2022-08-19T08:23:13;87.57;;;41.37;;
69754;SDS011;57023;52.218;5.158;2022-08-19T08:25:50;95.35;;;44.25;;
69754;SDS011;57023;52.218;5.158;2022-08-19T08:28:16;90.07;;;43.30;;
69754;SDS011;57023;52.218;5.158;2022-08-19T08:30:42;93.25;;;43.35;;
69754;SDS011;57023;52.218;5.158;2022-08-19T08:33:08;93.88;;;45.70;;
69754;SDS011;57023;52.218;5.158;2022-08-19T08:35:34;86.82;;;41.85;;
69754;SDS011;57023;52.218;5.158;2022-08-19T08:38:00;87.75;;;40.38;;
69754;SDS011;57023;52.218;5.158;2022-08-19T08:42:55;78.67;;;37.60;;
69754;SDS011;57023;52.218;5.158;2022-08-19T08:45:25;78.93;;;40.40;;
69754;SDS011;57023;52.218;5.158;2022-08-19T08:47:51;80.93;;;41.72;;
69754;SDS011;57023;52.218;5.158;2022-08-19T08:50:24;77.03;;;38.45;;
69754;SDS011;57023;52.218;5.158;2022-08-19T08:52:54;85.18;;;40.83;;
69754;SDS011;57023;52.218;5.158;2022-08-19T08:55:23;80.97;;;40.60;;
69754;SDS011;57023;52.218;5.158;2022-08-19T08:57:55;72.78;;;40.47;;
69754;SDS011;57023;52.218;5.158;2022-08-19T09:05:49;75.88;;;37.92;;
69754;SDS011;57023;52.218;5.158;2022-08-19T09:11:29;72.35;;;37.97;;
69754;SDS011;57023;52.218;5.158;2022-08-19T09:19:24;72.10;;;36.37;;
69754;SDS011;57023;52.218;5.158;2022-08-19T09:21:49;75.20;;;38.88;;
69754;SDS011;57023;52.218;5.158;2022-08-19T09:24:15;65.30;;;38.10;;
69754;SDS011;57023;52.218;5.158;2022-08-19T09:26:41;71.20;;;38.55;;
69754;SDS011;57023;52.218;5.158;2022-08-19T09:29:07;63.30;;;36.95;;
69754;SDS011;57023;52.218;5.158;2022-08-19T09:31:33;65.35;;;37.95;;
69754;SDS011;57023;52.218;5.158;2022-08-19T09:33:59;64.38;;;36.67;;
69754;SDS011;57023;52.218;5.158;2022-08-19T09:36:25;58.88;;;34.85;;
69754;SDS011;57023;52.218;5.158;2022-08-19T09:38:54;55.13;;;25.63;;
69754;SDS011;57023;52.218;5.158;2022-08-19T09:41:20;62.03;;;34.45;;
69754;SDS011;57023;52.218;5.158;2022-08-19T09:43:49;62.78;;;39.58;;
69754;SDS011;57023;52.218;5.158;2022-08-19T09:46:17;66.57;;;37.30;;
69754;SDS011;57023;52.218;5.158;2022-08-19T09:48:44;62.03;;;38.33;;
69754;SDS011;57023;52.218;5.158;2022-08-19T09:51:13;58.08;;;36.90;;
69754;SDS011;57023;52.218;5.158;2022-08-19T09:53:40;59.40;;;35.90;;
69754;SDS011;57023;52.218;5.158;2022-08-19T09:56:06;55.23;;;35.67;;
69754;SDS011;57023;52.218;5.158;2022-08-19T09:58:32;58.33;;;36.13;;
69754;SDS011;57023;52.218;5.158;2022-08-19T10:00:58;56.30;;;35.57;;
69754;SDS011;57023;52.218;5.158;2022-08-19T10:03:24;55.58;;;34.80;;
69754;SDS011;57023;52.218;5.158;2022-08-19T10:05:50;52.78;;;33.75;;
69754;SDS011;57023;52.218;5.158;2022-08-19T10:08:17;52.23;;;33.20;;
69754;SDS011;57023;52.218;5.158;2022-08-19T10:10:44;50.35;;;34.72;;
69754;SDS011;57023;52.218;5.158;2022-08-19T10:13:10;51.33;;;33.97;;
69754;SDS011;57023;52.218;5.158;2022-08-19T10:15:36;55.43;;;34.90;;
69754;SDS011;57023;52.218;5.158;2022-08-19T10:18:04;52.95;;;30.13;;
69754;SDS011;57023;52.218;5.158;2022-08-19T10:20:29;51.13;;;32.03;;
69754;SDS011;57023;52.218;5.158;2022-08-19T10:22:55;48.97;;;33.37;;
69754;SDS011;57023;52.218;5.158;2022-08-19T10:25:20;49.67;;;30.63;;
69754;SDS011;57023;52.218;5.158;2022-08-19T10:27:45;50.23;;;32.90;;
69754;SDS011;57023;52.218;5.158;2022-08-19T10:30:11;48.57;;;31.93;;
69754;SDS011;57023;52.218;5.158;2022-08-19T10:32:37;48.22;;;33.55;;
69754;SDS011;57023;52.218;5.158;2022-08-19T10:35:03;51.53;;;32.73;;
69754;SDS011;57023;52.218;5.158;2022-08-19T10:37:32;44.85;;;30.58;;
69754;SDS011;57023;52.218;5.158;2022-08-19T10:39:58;41.10;;;28.80;;
69754;SDS011;57023;52.218;5.158;2022-08-19T10:42:24;44.23;;;29.43;;
69754;SDS011;57023;52.218;5.158;2022-08-19T10:44:49;43.13;;;28.60;;
69754;SDS011;57023;52.218;5.158;2022-08-19T10:47:15;41.53;;;27.37;;
69754;SDS011;57023;52.218;5.158;2022-08-19T10:49:40;38.40;;;25.63;;
69754;SDS011;57023;52.218;5.158;2022-08-19T10:52:25;34.35;;;22.70;;
69754;SDS011;57023;52.218;5.158;2022-08-19T10:55:00;31.70;;;23.20;;
69754;SDS011;57023;52.218;5.158;2022-08-19T10:57:47;31.25;;;23.58;;
69754;SDS011;57023;52.218;5.158;2022-08-19T11:00:12;30.93;;;22.93;;
69754;SDS011;57023;52.218;5.158;2022-08-19T11:02:38;29.47;;;20.17;;
69754;SDS011;57023;52.218;5.158;2022-08-19T11:05:04;28.53;;;19.37;;
69754;SDS011;57023;52.218;5.158;2022-08-19T11:07:30;29.88;;;19.55;;
69754;SDS011;57023;52.218;5.158;2022-08-19T11:09:55;25.70;;;18.50;;
69754;SDS011;57023;52.218;5.158;2022-08-19T11:12:21;24.90;;;17.67;;
69754;SDS011;57023;52.218;5.158;2022-08-19T11:14:46;20.30;;;14.57;;
69754;SDS011;57023;52.218;5.158;2022-08-19T11:17:14;22.08;;;14.30;;
69754;SDS011;57023;52.218;5.158;2022-08-19T11:19:40;23.37;;;16.20;;
69754;SDS011;57023;52.218;5.158;2022-08-19T11:22:07;27.27;;;19.35;;
69754;SDS011;57023;52.218;5.158;2022-08-19T11:24:34;26.95;;;19.13;;
69754;SDS011;57023;52.218;5.158;2022-08-19T11:27:01;29.30;;;18.75;;
69754;SDS011;57023;52.218;5.158;2022-08-19T11:29:30;26.83;;;17.65;;
69754;SDS011;57023;52.218;5.158;2022-08-19T11:31:56;27.45;;;18.75;;
69754;SDS011;57023;52.218;5.158;2022-08-19T11:34:23;24.57;;;17.87;;
69754;SDS011;57023;52.218;5.158;2022-08-19T11:36:51;29.77;;;20.83;;
69754;SDS011;57023;52.218;5.158;2022-08-19T11:39:18;31.80;;;19.03;;
69754;SDS011;57023;52.218;5.158;2022-08-19T11:41:45;26.23;;;19.00;;
69754;SDS011;57023;52.218;5.158;2022-08-19T11:44:10;25.50;;;18.50;;
69754;SDS011;57023;52.218;5.158;2022-08-19T11:46:36;29.80;;;20.30;;
69754;SDS011;57023;52.218;5.158;2022-08-19T11:49:02;35.72;;;23.73;;
69754;SDS011;57023;52.218;5.158;2022-08-19T11:51:30;34.75;;;25.20;;
69754;SDS011;57023;52.218;5.158;2022-08-19T11:54:00;36.15;;;25.92;;
69754;SDS011;57023;52.218;5.158;2022-08-19T11:56:26;32.27;;;24.73;;
69754;SDS011;57023;52.218;5.158;2022-08-19T11:58:52;35.90;;;27.33;;
69754;SDS011;57023;52.218;5.158;2022-08-19T12:01:20;33.67;;;25.73;;
69754;SDS011;57023;52.218;5.158;2022-08-19T12:03:47;32.40;;;24.55;;
69754;SDS011;57023;52.218;5.158;2022-08-19T12:06:18;31.55;;;23.40;;
69754;SDS011;57023;52.218;5.158;2022-08-19T12:08:52;28.92;;;22.77;;
69754;SDS011;57023;52.218;5.158;2022-08-19T12:11:18;29.45;;;22.10;;
69754;SDS011;57023;52.218;5.158;2022-08-19T12:13:43;28.87;;;22.10;;
69754;SDS011;57023;52.218;5.158;2022-08-19T12:16:12;31.70;;;23.95;;
69754;SDS011;57023;52.218;5.158;2022-08-19T12:18:39;27.95;;;22.80;;
69754;SDS011;57023;52.218;5.158;2022-08-19T12:21:15;28.10;;;22.13;;
69754;SDS011;57023;52.218;5.158;2022-08-19T12:23:43;31.42;;;22.25;;
69754;SDS011;57023;52.218;5.158;2022-08-19T12:26:10;31.63;;;21.15;;
69754;SDS011;57023;52.218;5.158;2022-08-19T12:28:36;23.13;;;18.25;;
69754;SDS011;57023;52.218;5.158;2022-08-19T12:31:03;24.77;;;18.38;;
69754;SDS011;57023;52.218;5.158;2022-08-19T12:33:28;25.47;;;19.47;;
69754;SDS011;57023;52.218;5.158;2022-08-19T12:35:54;24.43;;;19.43;;
69754;SDS011;57023;52.218;5.158;2022-08-19T12:38:20;22.90;;;16.58;;
69754;SDS011;57023;52.218;5.158;2022-08-19T12:40:48;21.50;;;15.55;;
69754;SDS011;57023;52.218;5.158;2022-08-19T12:43:14;27.37;;;14.83;;
69754;SDS011;57023;52.218;5.158;2022-08-19T12:45:44;20.23;;;13.65;;
69754;SDS011;57023;52.218;5.158;2022-08-19T12:48:10;19.47;;;13.73;;
69754;SDS011;57023;52.218;5.158;2022-08-19T12:50:35;17.50;;;13.27;;
69754;SDS011;57023;52.218;5.158;2022-08-19T12:53:00;19.17;;;11.90;;
69754;SDS011;57023;52.218;5.158;2022-08-19T12:55:26;17.60;;;11.67;;
69754;SDS011;57023;52.218;5.158;2022-08-19T12:57:53;16.38;;;11.20;;
69754;SDS011;57023;52.218;5.158;2022-08-19T13:00:19;18.97;;;11.50;;
69754;SDS011;57023;52.218;5.158;2022-08-19T13:02:47;18.40;;;12.85;;
69754;SDS011;57023;52.218;5.158;2022-08-19T13:05:17;21.02;;;12.15;;
69754;SDS011;57023;52.218;5.158;2022-08-19T13:07:48;17.95;;;12.80;;
69754;SDS011;57023;52.218;5.158;2022-08-19T13:10:14;21.05;;;11.82;;
69754;SDS011;57023;52.218;5.158;2022-08-19T13:12:41;15.68;;;11.30;;
69754;SDS011;57023;52.218;5.158;2022-08-19T13:15:07;15.00;;;10.88;;
69754;SDS011;57023;52.218;5.158;2022-08-19T13:17:33;16.73;;;11.27;;
69754;SDS011;57023;52.218;5.158;2022-08-19T13:19:59;15.27;;;10.75;;
69754;SDS011;57023;52.218;5.158;2022-08-19T13:22:25;20.33;;;12.50;;
69754;SDS011;57023;52.218;5.158;2022-08-19T13:24:50;21.60;;;12.03;;
69754;SDS011;57023;52.218;5.158;2022-08-19T13:27:15;24.13;;;12.67;;
69754;SDS011;57023;52.218;5.158;2022-08-19T13:29:41;18.43;;;13.80;;
69754;SDS011;57023;52.218;5.158;2022-08-19T13:32:25;17.60;;;12.65;;
69754;SDS011;57023;52.218;5.158;2022-08-19T13:35:09;20.00;;;13.30;;
69754;SDS011;57023;52.218;5.158;2022-08-19T13:37:34;21.77;;;12.90;;
69754;SDS011;57023;52.218;5.158;2022-08-19T13:40:06;15.00;;;11.52;;
69754;SDS011;57023;52.218;5.158;2022-08-19T13:45:00;13.23;;;8.53;;
69754;SDS011;57023;52.218;5.158;2022-08-19T13:47:25;12.73;;;8.00;;
69754;SDS011;57023;52.218;5.158;2022-08-19T13:49:50;10.90;;;7.33;;
69754;SDS011;57023;52.218;5.158;2022-08-19T13:52:15;12.63;;;7.67;;
69754;SDS011;57023;52.218;5.158;2022-08-19T13:54:41;11.97;;;8.03;;
69754;SDS011;57023;52.218;5.158;2022-08-19T13:57:06;9.23;;;5.97;;
69754;SDS011;57023;52.218;5.158;2022-08-19T13:59:31;10.87;;;7.33;;
69754;SDS011;57023;52.218;5.158;2022-08-19T14:01:58;12.73;;;7.05;;
69754;SDS011;57023;52.218;5.158;2022-08-19T14:04:24;9.52;;;6.43;;
69754;SDS011;57023;52.218;5.158;2022-08-19T14:06:49;10.03;;;5.20;;
69754;SDS011;57023;52.218;5.158;2022-08-19T14:09:14;11.50;;;5.67;;
69754;SDS011;57023;52.218;5.158;2022-08-19T14:11:40;7.67;;;5.50;;
69754;SDS011;57023;52.218;5.158;2022-08-19T14:14:05;7.40;;;5.90;;
69754;SDS011;57023;52.218;5.158;2022-08-19T14:16:31;8.60;;;5.20;;
69754;SDS011;57023;52.218;5.158;2022-08-19T14:18:56;9.80;;;5.80;;
69754;SDS011;57023;52.218;5.158;2022-08-19T14:21:22;8.17;;;6.23;;
69754;SDS011;57023;52.218;5.158;2022-08-19T14:23:49;10.30;;;6.05;;
69754;SDS011;57023;52.218;5.158;2022-08-19T14:26:15;9.30;;;6.03;;
69754;SDS011;57023;52.218;5.158;2022-08-19T14:28:43;8.32;;;6.00;;
69754;SDS011;57023;52.218;5.158;2022-08-19T14:31:09;6.80;;;5.45;;
69754;SDS011;57023;52.218;5.158;2022-08-19T14:33:36;9.20;;;5.25;;
69754;SDS011;57023;52.218;5.158;2022-08-19T14:36:01;7.93;;;5.20;;
69754;SDS011;57023;52.218;5.158;2022-08-19T14:38:27;7.63;;;5.53;;
69754;SDS011;57023;52.218;5.158;2022-08-19T14:40:56;7.68;;;4.90;;
69754;SDS011;57023;52.218;5.158;2022-08-19T14:43:29;6.75;;;4.95;;
69754;SDS011;57023;52.218;5.158;2022-08-19T14:45:55;7.97;;;4.90;;
69754;SDS011;57023;52.218;5.158;2022-08-19T14:48:21;8.98;;;4.85;;
69754;SDS011;57023;52.218;5.158;2022-08-19T14:50:47;12.10;;;5.43;;
69754;SDS011;57023;52.218;5.158;2022-08-19T14:53:12;6.93;;;5.00;;
69754;SDS011;57023;52.218;5.158;2022-08-19T14:55:40;7.77;;;5.07;;
69754;SDS011;57023;52.218;5.158;2022-08-19T14:58:06;8.90;;;5.47;;
69754;SDS011;57023;52.218;5.158;2022-08-19T15:00:31;7.43;;;5.30;;
69754;SDS011;57023;52.218;5.158;2022-08-19T15:02:56;10.03;;;5.60;;